Time;durP1;ratioP1;P1;durP2;ratioP2;P2;SDS_P1;SDS_P2;PMS_P1;PMS_P2;Temp;Humidity;BMP_temperature;BMP_pressure;BME280_temperature;BME280_humidity;BME280_pressure;Samples;Min_cycle;Max_cycle;Signal;HPM_P1;HPM_P2
2020/12/28 00:01:45;;;;;;;27.52;7.85;;;32.50;99.90;;;;;;5053755;28;20107;-62
2020/12/28 00:04:13;;;;;;;32.35;8.18;;;32.10;99.90;;;;;;5053902;28;20029;-62
2020/12/28 00:06:47;;;;;;;30.27;7.57;;;31.90;99.90;;;;;;5053577;28;20029;-62
2020/12/28 00:09:15;;;;;;;26.67;7.80;;;31.10;99.90;;;;;;5053982;28;20520;-62
2020/12/28 00:11:43;;;;;;;25.40;7.38;;;30.60;99.90;;;;;;5051798;28;20426;-61
2020/12/28 00:14:12;;;;;;;27.83;8.52;;;30.40;99.90;;;;;;5053503;28;20025;-60
2020/12/28 01:48:32;;;;;;;24.50;6.05;;;28.80;99.90;;;;;;5074940;28;20041;-61
2020/12/28 01:51:00;;;;;;;30.27;6.68;;;28.70;99.90;;;;;;5076404;28;20432;-62
2020/12/28 01:53:28;;;;;;;27.75;6.03;;;28.30;99.90;;;;;;5076444;28;20031;-62
2020/12/28 01:56:03;;;;;;;29.83;7.00;;;28.10;99.90;;;;;;5057897;28;20058;-62
2020/12/28 01:58:32;;;;;;;24.08;6.13;;;28.00;99.90;;;;;;5076432;28;20151;-62
2020/12/28 02:01:00;;;;;;;26.25;6.03;;;27.90;99.90;;;;;;5076367;28;20477;-62
2020/12/28 02:03:28;;;;;;;23.40;6.72;;;27.60;99.90;;;;;;5076250;28;20020;-65
2020/12/28 02:05:56;;;;;;;26.48;6.72;;;27.40;99.90;;;;;;5075893;28;20025;-62
2020/12/28 02:08:24;;;;;;;29.40;7.32;;;27.30;99.90;;;;;;5076184;28;20017;-60
2020/12/28 02:10:56;;;;;;;26.10;5.78;;;27.30;99.90;;;;;;5076136;28;20541;-61
2020/12/28 02:13:24;;;;;;;25.98;6.35;;;27.00;99.90;;;;;;5074850;28;20496;-61
2020/12/28 02:15:52;;;;;;;24.17;6.45;;;26.70;99.90;;;;;;5075859;28;20082;-61
2020/12/28 02:18:21;;;;;;;27.60;7.10;;;26.60;99.90;;;;;;5075950;28;20032;-61
2020/12/28 02:20:49;;;;;;;30.25;6.65;;;26.90;99.90;;;;;;5075598;28;20032;-60
2020/12/28 02:23:17;;;;;;;25.02;5.82;;;26.80;99.90;;;;;;5075858;28;20503;-60
2020/12/28 02:25:45;;;;;;;26.55;5.97;;;26.90;99.90;;;;;;5075540;28;20031;-61
2020/12/28 02:28:13;;;;;;;27.17;6.00;;;26.70;99.90;;;;;;5074752;28;20044;-60
2020/12/28 02:30:40;;;;;;;29.50;6.00;;;26.70;99.90;;;;;;5075453;28;20050;-61
2020/12/28 02:33:08;;;;;;;27.17;6.28;;;26.90;99.90;;;;;;5075438;28;20112;-62
2020/12/28 02:35:36;;;;;;;29.30;6.43;;;26.60;99.90;;;;;;5075726;28;20021;-63
2020/12/28 02:38:04;;;;;;;34.20;7.25;;;26.30;99.90;;;;;;5075854;28;20058;-64
2020/12/28 02:40:31;;;;;;;35.55;6.53;;;26.00;99.90;;;;;;5075184;28;20036;-64
2020/12/28 02:43:00;;;;;;;40.88;7.18;;;25.90;99.90;;;;;;5075564;28;20025;-65
2020/12/28 02:45:27;;;;;;;31.33;6.13;;;25.70;99.90;;;;;;5075479;28;20039;-65
2020/12/28 02:47:55;;;;;;;27.25;5.28;;;25.60;99.90;;;;;;5075344;28;20492;-65
2020/12/28 02:50:23;;;;;;;33.10;6.68;;;25.40;99.90;;;;;;5075073;28;20429;-64
2020/12/28 02:52:51;;;;;;;27.00;5.93;;;25.20;99.90;;;;;;5075154;28;20059;-63
2020/12/28 02:55:19;;;;;;;27.88;5.75;;;24.90;99.90;;;;;;5075211;28;20031;-65
2020/12/28 02:57:47;;;;;;;35.63;6.57;;;24.50;99.90;;;;;;5074975;28;20111;-65
2020/12/28 03:00:15;;;;;;;32.80;6.35;;;24.30;99.90;;;;;;5075167;28;20074;-65
2020/12/28 03:02:43;;;;;;;30.15;6.68;;;24.00;99.90;;;;;;5075163;28;20388;-64
2020/12/28 03:05:11;;;;;;;30.77;6.25;;;23.80;99.90;;;;;;5074966;28;20025;-64
2020/12/28 03:07:39;;;;;;;38.70;8.07;;;23.50;99.90;;;;;;5074630;28;20089;-64
2020/12/28 03:10:07;;;;;;;27.73;5.88;;;23.40;99.90;;;;;;5075063;28;20103;-64
2020/12/28 03:12:35;;;;;;;29.13;8.95;;;23.20;99.90;;;;;;5074805;28;20108;-64
2020/12/28 03:15:04;;;;;;;35.35;6.50;;;23.10;99.90;;;;;;5073028;28;20033;-64
2020/12/28 03:17:31;;;;;;;36.05;14.30;;;23.10;99.90;;;;;;5074620;28;20044;-64
2020/12/28 03:20:00;;;;;;;37.35;17.77;;;23.10;99.90;;;;;;5074835;28;20036;-63
2020/12/28 03:22:27;;;;;;;33.35;15.25;;;23.00;99.90;;;;;;5074755;28;20435;-64
2020/12/28 03:24:55;;;;;;;32.58;15.70;;;22.90;99.90;;;;;;5074722;28;20058;-64
2020/12/28 03:27:23;;;;;;;27.23;6.40;;;23.00;99.90;;;;;;5074675;28;20510;-64
2020/12/28 03:29:50;;;;;;;32.67;6.65;;;23.00;99.90;;;;;;5056127;28;20028;-63
2020/12/28 03:32:22;;;;;;;36.30;6.85;;;23.00;99.90;;;;;;5074624;28;20029;-64
2020/12/28 03:34:50;;;;;;;30.25;6.15;;;23.00;99.90;;;;;;5074420;28;20029;-64
2020/12/28 03:37:18;;;;;;;30.70;6.18;;;22.90;99.90;;;;;;5074254;28;20024;-64
2020/12/28 03:39:46;;;;;;;37.15;15.98;;;22.60;99.90;;;;;;5073879;28;20028;-64
2020/12/28 03:42:14;;;;;;;38.03;14.15;;;22.50;99.90;;;;;;5074120;28;20466;-63
2020/12/28 03:44:41;;;;;;;29.52;11.00;;;22.40;99.90;;;;;;5074386;28;20385;-64
2020/12/28 03:47:08;;;;;;;33.50;17.67;;;22.40;99.90;;;;;;5074230;28;20485;-63
2020/12/28 03:49:36;;;;;;;32.80;6.82;;;22.30;99.90;;;;;;5073757;28;20409;-64
2020/12/28 03:52:04;;;;;;;33.75;6.53;;;22.40;99.90;;;;;;5074034;28;20376;-64
2020/12/28 03:54:32;;;;;;;29.80;5.85;;;22.40;99.90;;;;;;5074118;28;20515;-64
2020/12/28 03:57:00;;;;;;;28.52;5.85;;;22.40;99.90;;;;;;5074136;28;20397;-64
2020/12/28 03:59:27;;;;;;;27.98;5.38;;;22.50;99.90;;;;;;5055482;28;20582;-65
2020/12/28 04:01:56;;;;;;;31.63;5.75;;;22.60;99.90;;;;;;5073780;28;20036;-64
2020/12/28 04:04:23;;;;;;;29.42;6.18;;;22.50;99.90;;;;;;5073862;28;20028;-64
2020/12/28 04:06:51;;;;;;;25.35;6.25;;;22.40;99.90;;;;;;5073697;28;20036;-64
2020/12/28 04:09:19;;;;;;;32.80;6.25;;;22.30;99.90;;;;;;5073984;28;20035;-64
2020/12/28 04:11:51;;;;;;;30.92;5.50;;;22.40;99.90;;;;;;5073556;28;20028;-64
2020/12/28 04:14:18;;;;;;;32.97;6.82;;;22.50;99.90;;;;;;5073651;28;20021;-64
2020/12/28 04:16:46;;;;;;;26.98;5.50;;;22.40;99.90;;;;;;5073635;28;20028;-64
2020/12/28 04:19:14;;;;;;;34.50;5.20;;;22.50;99.90;;;;;;5073854;28;20028;-64
2020/12/28 04:21:42;;;;;;;33.63;5.47;;;22.40;99.90;;;;;;5073525;28;20021;-64
2020/12/28 04:24:15;;;;;;;31.63;5.85;;;22.30;99.90;;;;;;5073683;28;20039;-64
2020/12/28 04:26:46;;;;;;;27.17;7.68;;;22.20;99.90;;;;;;5073688;28;20377;-64
2020/12/28 04:29:14;;;;;;;24.80;5.43;;;22.20;99.90;;;;;;5073742;28;20025;-65
2020/12/28 04:31:43;;;;;;;24.73;5.65;;;22.30;99.90;;;;;;5073329;28;20032;-65
2020/12/28 04:34:11;;;;;;;33.65;5.70;;;22.30;99.90;;;;;;5073639;28;20494;-65
2020/12/28 04:36:39;;;;;;;29.02;6.03;;;22.20;99.90;;;;;;5073410;28;20051;-63
2020/12/28 04:39:08;;;;;;;24.67;4.93;;;22.20;99.90;;;;;;5073604;28;20028;-64
2020/12/28 04:41:35;;;;;;;22.85;4.88;;;22.50;99.90;;;;;;5073142;28;20131;-64
2020/12/28 04:44:03;;;;;;;30.35;6.43;;;22.50;99.90;;;;;;5073219;28;20035;-64
2020/12/28 04:46:34;;;;;;;23.85;5.32;;;22.60;99.90;;;;;;5073181;28;20488;-64
2020/12/28 04:49:02;;;;;;;30.73;6.22;;;22.80;99.90;;;;;;5073233;28;20582;-64
2020/12/28 04:51:30;;;;;;;27.83;5.35;;;22.70;99.90;;;;;;5072462;28;20035;-64
2020/12/28 04:53:59;;;;;;;31.10;5.88;;;22.70;99.90;;;;;;5073290;28;20059;-64
2020/12/28 04:56:27;;;;;;;25.80;5.25;;;22.60;99.90;;;;;;5072243;28;20074;-64
2020/12/28 04:58:55;;;;;;;27.20;5.75;;;22.40;99.90;;;;;;5073376;28;20024;-64
2020/12/28 05:01:23;;;;;;;30.20;5.22;;;22.20;99.90;;;;;;5073038;28;20025;-64
2020/12/28 05:03:51;;;;;;;23.10;4.65;;;22.20;99.90;;;;;;5071340;28;20377;-64
2020/12/28 05:06:18;;;;;;;27.80;5.55;;;22.10;99.90;;;;;;5073190;28;20032;-64
2020/12/28 05:08:46;;;;;;;25.88;5.63;;;22.00;99.90;;;;;;5072993;28;20028;-64
2020/12/28 05:11:15;;;;;;;26.88;5.32;;;21.80;99.90;;;;;;5054597;28;20033;-64
2020/12/28 05:13:50;;;;;;;34.83;7.28;;;21.70;99.90;;;;;;5072940;28;20024;-64
2020/12/28 05:16:19;;;;;;;27.73;5.22;;;21.50;99.90;;;;;;5072919;28;20385;-64
2020/12/28 05:19:07;;;;;;;31.67;6.10;;;21.50;99.90;;;;;;5072114;28;20021;-63
2020/12/28 05:21:35;;;;;;;28.70;5.75;;;21.60;99.90;;;;;;5050786;28;20040;-64
2020/12/28 05:24:12;;;;;;;25.00;4.60;;;21.50;99.90;;;;;;5034101;28;20068;-64
2020/12/28 05:26:42;;;;;;;20.58;4.95;;;21.60;99.90;;;;;;5050646;28;20033;-63
2020/12/28 05:29:22;;;;;;;23.55;5.00;;;21.60;99.90;;;;;;5050612;28;20037;-64
2020/12/28 05:31:55;;;;;;;28.20;6.23;;;21.50;99.90;;;;;;5050960;28;20037;-63
2020/12/28 05:34:27;;;;;;;30.80;6.63;;;21.40;99.90;;;;;;5050849;28;20341;-64
2020/12/28 05:36:57;;;;;;;21.63;4.18;;;21.30;99.90;;;;;;5050624;28;20508;-63
2020/12/28 05:39:27;;;;;;;30.02;5.45;;;21.30;99.90;;;;;;5050635;28;20112;-63
2020/12/28 05:42:14;;;;;;;25.05;6.53;;;21.20;99.90;;;;;;5050502;28;20051;-63
2020/12/28 05:44:44;;;;;;;27.20;6.60;;;21.20;99.90;;;;;;5050626;28;20033;-64
2020/12/28 05:47:14;;;;;;;27.63;5.65;;;21.20;99.90;;;;;;5050571;28;20056;-64
2020/12/28 05:49:47;;;;;;;23.48;5.32;;;21.20;99.90;;;;;;5050504;28;20045;-64
2020/12/28 05:52:17;;;;;;;21.92;4.57;;;21.10;99.90;;;;;;5059373;28;20445;-64
2020/12/28 05:54:45;;;;;;;21.38;4.38;;;21.10;99.90;;;;;;5072560;28;20119;-64
2020/12/28 05:57:13;;;;;;;23.85;4.38;;;21.10;99.90;;;;;;5072446;28;20032;-64
2020/12/28 05:59:41;;;;;;;24.02;4.47;;;21.00;99.90;;;;;;5072463;28;20021;-64
2020/12/28 06:02:09;;;;;;;25.80;5.10;;;21.00;99.90;;;;;;5072500;28;20074;-64
2020/12/28 06:04:39;;;;;;;21.85;4.88;;;20.90;99.90;;;;;;5076089;28;20054;-64
2020/12/28 06:07:06;;;;;;;16.75;3.65;;;20.90;99.90;;;;;;5075996;28;20392;-64
2020/12/28 06:09:34;;;;;;;25.38;4.97;;;20.80;99.90;;;;;;5075997;28;20024;-64
2020/12/28 06:12:10;;;;;;;21.13;4.50;;;20.70;99.90;;;;;;5076437;28;20087;-65
2020/12/28 06:14:40;;;;;;;26.60;5.40;;;20.70;99.90;;;;;;5076208;28;20108;-65
2020/12/28 06:17:10;;;;;;;26.80;4.67;;;20.70;99.90;;;;;;5076133;28;20476;-65
2020/12/28 06:19:40;;;;;;;20.25;4.47;;;20.80;99.90;;;;;;5074411;28;20333;-62
2020/12/28 06:22:19;;;;;;;21.38;4.18;;;20.70;99.90;;;;;;5076110;28;20537;-65
2020/12/28 06:25:05;;;;;;;23.15;4.60;;;20.80;99.90;;;;;;5075689;28;20107;-65
2020/12/28 06:27:41;;;;;;;22.05;4.53;;;20.70;99.90;;;;;;5075663;28;20039;-65
2020/12/28 06:30:16;;;;;;;23.77;5.18;;;20.60;99.90;;;;;;5057433;28;20500;-65
2020/12/28 06:32:46;;;;;;;29.50;5.10;;;20.60;99.90;;;;;;5074617;28;20016;-65
2020/12/28 06:35:16;;;;;;;18.60;3.60;;;20.60;99.90;;;;;;5075506;28;20392;-65
2020/12/28 06:37:50;;;;;;;17.90;3.67;;;20.50;99.90;;;;;;5075504;28;20103;-65
2020/12/28 06:40:32;;;;;;;24.65;4.18;;;20.40;99.90;;;;;;5075575;28;20024;-64
2020/12/28 06:43:15;;;;;;;18.17;4.15;;;20.50;99.90;;;;;;5057546;28;20036;-65
2020/12/28 06:45:46;;;;;;;22.23;3.55;;;20.40;99.90;;;;;;5073543;28;20491;-65
2020/12/28 06:48:23;;;;;;;17.60;3.47;;;20.30;99.90;;;;;;5075183;28;20016;-65
2020/12/28 06:50:56;;;;;;;22.98;3.97;;;20.40;99.90;;;;;;5075238;28;20031;-64
2020/12/28 06:53:26;;;;;;;18.10;3.85;;;20.30;99.90;;;;;;5075177;28;20096;-65
2020/12/28 06:55:54;;;;;;;21.45;3.40;;;20.30;99.90;;;;;;5075455;28;20051;-65
2020/12/28 06:58:22;;;;;;;14.02;3.42;;;20.30;99.90;;;;;;5075429;28;20036;-65
2020/12/28 07:00:58;;;;;;;22.42;3.83;;;20.20;99.90;;;;;;5075235;28;20028;-65
2020/12/28 07:03:27;;;;;;;20.70;3.80;;;20.10;99.90;;;;;;5056608;28;20560;-65
2020/12/28 07:06:02;;;;;;;21.63;3.63;;;20.10;99.90;;;;;;5075098;28;20108;-65
2020/12/28 07:08:32;;;;;;;19.38;3.75;;;20.00;99.90;;;;;;5075102;28;20036;-65
2020/12/28 07:11:05;;;;;;;22.90;3.63;;;20.00;99.90;;;;;;5056926;28;20062;-64
2020/12/28 07:13:33;;;;;;;19.00;3.72;;;19.90;99.90;;;;;;5073383;28;20033;-65
2020/12/28 07:16:08;;;;;;;20.83;4.43;;;19.90;99.90;;;;;;5074349;28;20432;-64
2020/12/28 07:18:37;;;;;;;18.50;3.42;;;19.80;99.90;;;;;;5056269;28;20036;-64
2020/12/28 07:21:05;;;;;;;18.95;3.38;;;19.70;99.90;;;;;;5074879;28;20469;-64
2020/12/28 07:23:34;;;;;;;18.67;3.83;;;19.50;99.90;;;;;;5074627;28;20020;-64
2020/12/28 07:26:12;;;;;;;23.75;15.30;;;19.30;99.90;;;;;;5074471;28;20039;-64
2020/12/28 07:28:46;;;;;;;17.35;3.35;;;19.10;99.90;;;;;;5074785;28;20067;-64
2020/12/28 07:31:20;;;;;;;16.48;4.40;;;19.10;99.90;;;;;;5074657;28;20045;-64
2020/12/28 07:33:52;;;;;;;19.20;4.03;;;19.10;99.90;;;;;;5072344;28;20039;-64
2020/12/28 07:36:24;;;;;;;24.75;5.22;;;19.00;99.90;;;;;;5072262;28;20036;-63
2020/12/28 07:38:52;;;;;;;22.90;5.32;;;19.00;99.90;;;;;;5056041;28;20044;-63
2020/12/28 07:41:23;;;;;;;21.80;4.07;;;18.90;99.90;;;;;;5072000;28;20060;-63
2020/12/28 07:43:52;;;;;;;17.08;4.13;;;18.80;99.90;;;;;;5071977;28;20491;-63
2020/12/28 07:46:43;;;;;;;16.90;4.00;;;18.70;99.90;;;;;;5055278;28;20059;-63
2020/12/28 07:49:17;;;;;;;18.30;4.38;;;18.60;99.90;;;;;;5071779;28;20036;-61
2020/12/28 07:51:58;;;;;;;12.50;2.95;;;18.40;99.90;;;;;;5071904;28;20028;-62
2020/12/28 07:54:38;;;;;;;23.52;5.05;;;18.30;99.90;;;;;;5071803;28;20124;-62
2020/12/28 07:57:11;;;;;;;19.60;3.78;;;18.30;99.90;;;;;;5071820;28;20032;-62
2020/12/28 07:59:51;;;;;;;21.00;3.65;;;18.30;99.90;;;;;;5071762;28;20401;-62
2020/12/28 08:02:28;;;;;;;20.90;3.95;;;18.20;99.90;;;;;;5056315;28;20036;-62
2020/12/28 08:05:00;;;;;;;18.05;4.10;;;18.10;99.90;;;;;;5061547;28;20037;-62
2020/12/28 08:07:35;;;;;;;17.38;4.32;;;18.20;99.90;;;;;;5053865;28;20094;-62
2020/12/28 08:10:09;;;;;;;25.05;4.72;;;18.30;99.90;;;;;;5053962;28;20017;-62
2020/12/28 08:12:50;;;;;;;23.02;3.95;;;18.30;99.90;;;;;;5053740;28;20053;-62
2020/12/28 08:15:31;;;;;;;19.33;3.75;;;18.30;99.90;;;;;;5051927;28;20102;-62
2020/12/28 08:18:18;;;;;;;24.67;4.07;;;18.40;99.90;;;;;;5053897;28;20469;-62
2020/12/28 08:20:57;;;;;;;26.02;4.53;;;18.50;99.90;;;;;;5034957;28;20029;-62
2020/12/28 08:23:27;;;;;;;24.10;5.25;;;18.50;99.90;;;;;;5051461;28;20036;-62
2020/12/28 08:25:56;;;;;;;23.25;4.95;;;18.60;99.90;;;;;;5050726;28;20033;-62
2020/12/28 08:28:24;;;;;;;20.33;4.68;;;18.60;99.90;;;;;;5051207;28;20131;-63
2020/12/28 08:30:52;;;;;;;26.70;3.78;;;18.60;99.90;;;;;;5051297;28;20025;-63
2020/12/28 08:33:20;;;;;;;22.10;3.63;;;18.50;99.90;;;;;;5051271;28;20072;-63
2020/12/28 08:35:50;;;;;;;13.27;3.55;;;18.50;99.90;;;;;;5051114;28;20036;-62
2020/12/28 08:38:32;;;;;;;21.60;3.30;;;18.50;99.90;;;;;;5051206;28;20021;-62
2020/12/28 08:41:01;;;;;;;17.70;3.72;;;18.50;99.90;;;;;;5051122;28;20499;-62
2020/12/28 08:43:29;;;;;;;17.70;3.20;;;18.50;99.90;;;;;;5051128;28;20021;-62
2020/12/28 08:46:07;;;;;;;17.10;4.13;;;18.60;99.90;;;;;;5051027;28;20055;-62
2020/12/28 08:48:35;;;;;;;20.25;4.18;;;18.60;99.90;;;;;;5051015;28;20144;-62
2020/12/28 08:51:22;;;;;;;23.30;4.32;;;18.60;99.90;;;;;;5051559;28;20103;-62
2020/12/28 08:53:52;;;;;;;25.75;5.03;;;18.60;99.90;;;;;;5031164;28;20030;-63
2020/12/28 08:56:19;;;;;;;26.20;4.38;;;18.50;99.90;;;;;;5031001;28;20045;-63
2020/12/28 08:58:48;;;;;;;17.02;3.75;;;18.50;99.90;;;;;;5031115;28;20410;-63
2020/12/28 09:01:16;;;;;;;22.05;3.95;;;18.60;99.90;;;;;;5030973;28;20029;-63
2020/12/28 09:03:44;;;;;;;22.30;4.07;;;18.60;99.90;;;;;;5014729;28;20383;-62
2020/12/28 09:06:13;;;;;;;20.10;3.92;;;18.60;99.90;;;;;;5030817;28;20026;-63
2020/12/28 09:08:41;;;;;;;18.58;4.13;;;18.60;99.90;;;;;;5031009;28;20091;-63
2020/12/28 09:11:10;;;;;;;24.35;4.57;;;18.60;99.90;;;;;;5014562;28;20034;-63
2020/12/28 09:13:38;;;;;;;25.88;5.18;;;18.60;99.90;;;;;;5030866;28;20034;-62
2020/12/28 09:16:06;;;;;;;25.30;4.43;;;18.70;99.90;;;;;;5030868;28;20441;-63
2020/12/28 09:18:35;;;;;;;31.08;5.22;;;18.70;99.90;;;;;;5030849;28;20055;-62
2020/12/28 09:21:03;;;;;;;29.20;5.13;;;18.60;99.90;;;;;;5030876;28;20576;-63
2020/12/28 09:23:31;;;;;;;26.33;4.82;;;18.60;99.90;;;;;;5030833;28;20100;-62
2020/12/28 09:26:01;;;;;;;28.63;5.22;;;18.50;99.90;;;;;;5052460;28;20077;-62
2020/12/28 09:28:29;;;;;;;24.27;4.22;;;18.50;99.90;;;;;;5052876;28;20096;-62
2020/12/28 09:30:57;;;;;;;27.58;4.85;;;18.50;99.90;;;;;;5051972;28;20029;-62
2020/12/28 09:33:25;;;;;;;29.63;5.25;;;18.50;99.90;;;;;;5051518;28;20070;-62
2020/12/28 09:35:54;;;;;;;19.25;3.60;;;18.50;99.90;;;;;;5050967;28;20426;-62
2020/12/28 09:38:22;;;;;;;14.60;3.50;;;18.40;99.90;;;;;;5054337;28;20074;-62
2020/12/28 09:40:50;;;;;;;22.58;4.03;;;18.50;99.90;;;;;;5056281;28;20025;-62
2020/12/28 09:43:19;;;;;;;17.55;3.17;;;18.50;99.90;;;;;;5056357;28;20029;-63
2020/12/28 09:45:47;;;;;;;19.63;3.25;;;18.50;99.90;;;;;;5056547;28;20017;-63
2020/12/28 09:48:16;;;;;;;19.73;3.90;;;18.50;99.90;;;;;;5056575;28;20477;-63
2020/12/28 09:50:44;;;;;;;18.30;4.15;;;18.40;99.90;;;;;;5076555;28;20468;-63
2020/12/28 09:53:12;;;;;;;27.13;4.32;;;18.50;99.90;;;;;;5076242;28;20092;-63
2020/12/28 09:55:41;;;;;;;22.10;3.80;;;18.40;99.90;;;;;;5076420;28;20404;-63
2020/12/28 09:58:09;;;;;;;22.60;4.28;;;18.40;99.90;;;;;;5076110;28;20078;-63
2020/12/28 10:00:37;;;;;;;20.90;4.70;;;18.40;99.90;;;;;;5076322;28;20032;-63
2020/12/28 10:03:06;;;;;;;19.67;4.35;;;18.40;99.90;;;;;;5076008;28;20104;-63
2020/12/28 10:05:35;;;;;;;22.00;4.28;;;18.40;99.90;;;;;;5074185;28;20063;-63
2020/12/28 10:08:04;;;;;;;24.98;4.65;;;18.40;99.90;;;;;;5075785;28;20028;-63
2020/12/28 10:10:35;;;;;;;23.13;4.85;;;18.40;99.90;;;;;;5075978;28;20032;-63
2020/12/28 10:13:03;;;;;;;21.80;3.80;;;18.40;99.90;;;;;;5076183;28;20124;-63
2020/12/28 10:15:31;;;;;;;25.70;5.32;;;18.30;99.90;;;;;;5075934;28;20017;-63
2020/12/28 10:18:39;;;;;;;22.33;4.72;;;18.30;99.90;;;;;;5076103;28;20079;-63
2020/12/28 10:21:11;;;;;;;19.40;3.83;;;18.30;99.90;;;;;;5053717;28;20041;-63
2020/12/28 10:23:39;;;;;;;26.85;5.57;;;18.30;99.90;;;;;;5036991;28;20029;-63
2020/12/28 10:26:14;;;;;;;26.92;5.10;;;18.30;99.90;;;;;;5053438;28;20029;-63
2020/12/28 10:28:42;;;;;;;18.27;4.13;;;18.30;99.90;;;;;;5053654;28;20405;-63
2020/12/28 10:31:15;;;;;;;23.63;4.30;;;18.20;99.90;;;;;;5053510;28;20037;-63
2020/12/28 10:33:45;;;;;;;26.60;4.28;;;18.20;99.90;;;;;;5053516;28;20025;-63
2020/12/28 10:36:23;;;;;;;25.25;4.82;;;18.00;99.90;;;;;;5036982;28;20077;-63
2020/12/28 10:38:53;;;;;;;26.05;4.72;;;18.10;99.90;;;;;;5037300;28;20497;-63
2020/12/28 10:41:29;;;;;;;24.23;5.72;;;18.10;99.90;;;;;;5036989;28;20579;-63
2020/12/28 10:43:58;;;;;;;20.55;3.97;;;18.10;99.90;;;;;;5053259;28;20036;-63
2020/12/28 10:46:26;;;;;;;26.13;4.43;;;18.00;99.90;;;;;;5053074;28;20064;-63
2020/12/28 10:48:56;;;;;;;27.98;5.22;;;18.00;99.90;;;;;;5052518;28;20191;-63
2020/12/28 10:51:25;;;;;;;23.92;4.63;;;18.00;99.90;;;;;;5061104;28;20041;-63
2020/12/28 10:53:53;;;;;;;24.00;3.67;;;17.90;99.90;;;;;;5075226;28;20024;-62
2020/12/28 10:56:26;;;;;;;20.77;4.22;;;17.80;99.90;;;;;;5073867;28;20481;-62
2020/12/28 10:58:58;;;;;;;24.02;4.47;;;17.80;99.90;;;;;;5075398;28;20076;-62
2020/12/28 11:01:29;;;;;;;16.98;3.70;;;17.80;99.90;;;;;;5075327;28;20032;-63
2020/12/28 11:03:58;;;;;;;16.88;3.40;;;17.80;99.90;;;;;;5075024;28;20043;-62
2020/12/28 11:06:25;;;;;;;23.48;4.35;;;17.80;99.90;;;;;;5075136;28;20535;-62
2020/12/28 11:08:53;;;;;;;25.00;4.22;;;17.80;99.90;;;;;;5075076;28;20500;-63
2020/12/28 11:11:21;;;;;;;26.23;3.80;;;17.70;99.90;;;;;;5074778;28;20021;-63
2020/12/28 11:13:51;;;;;;;21.40;3.55;;;17.70;99.90;;;;;;5074737;28;20033;-62
2020/12/28 11:16:26;;;;;;;20.98;3.72;;;17.70;99.90;;;;;;5074718;28;20389;-63
2020/12/28 11:18:55;;;;;;;22.17;4.18;;;17.70;99.90;;;;;;5074738;28;20025;-63
2020/12/28 11:21:23;;;;;;;26.67;3.60;;;17.80;99.90;;;;;;5074547;28;20033;-63
2020/12/28 11:26:39;;;;;;;17.30;3.67;;;17.70;99.90;;;;;;5072326;28;20040;-63
2020/12/28 11:29:07;;;;;;;22.08;4.20;;;17.80;99.90;;;;;;5072311;28;20044;-63
2020/12/28 11:31:35;;;;;;;24.77;3.58;;;17.70;99.90;;;;;;5072278;28;20548;-63
2020/12/28 11:34:04;;;;;;;20.33;3.67;;;17.70;99.90;;;;;;5072186;28;20017;-63
2020/12/28 11:36:32;;;;;;;21.02;3.80;;;17.70;99.90;;;;;;5072309;28;20045;-63
2020/12/28 11:39:00;;;;;;;18.38;3.75;;;17.70;99.90;;;;;;5072084;28;20028;-63
2020/12/28 11:41:28;;;;;;;17.23;3.58;;;17.70;99.90;;;;;;5072010;28;20119;-63
2020/12/28 11:43:56;;;;;;;23.02;4.68;;;17.70;99.90;;;;;;5072046;28;20028;-63
2020/12/28 11:46:24;;;;;;;21.02;3.65;;;17.70;99.90;;;;;;5071844;28;20040;-63
2020/12/28 11:48:52;;;;;;;20.27;3.75;;;17.70;99.90;;;;;;5071892;28;20048;-63
2020/12/28 11:51:20;;;;;;;26.40;4.68;;;17.60;99.90;;;;;;5071744;28;20040;-63
2020/12/28 11:53:48;;;;;;;15.35;3.03;;;17.70;99.90;;;;;;5071715;28;20465;-63
2020/12/28 11:56:18;;;;;;;17.55;4.35;;;17.60;99.90;;;;;;5071691;28;20036;-63
2020/12/28 11:58:46;;;;;;;22.27;3.92;;;17.60;99.90;;;;;;5054302;28;20043;-63
2020/12/28 12:01:16;;;;;;;20.40;3.65;;;17.70;99.90;;;;;;5053683;28;20028;-63
2020/12/28 12:03:47;;;;;;;25.92;3.75;;;17.60;99.90;;;;;;5053910;28;20060;-63
2020/12/28 12:06:22;;;;;;;21.30;3.72;;;17.60;99.90;;;;;;5053962;28;20430;-63
2020/12/28 12:11:43;;;;;;;18.33;3.30;;;17.60;99.90;;;;;;5071538;28;20033;-63
2020/12/28 12:14:13;;;;;;;16.92;3.60;;;17.60;99.90;;;;;;5071434;28;20060;-63
2020/12/28 12:16:41;;;;;;;20.67;3.17;;;17.50;99.90;;;;;;5071522;28;20037;-63
2020/12/28 12:19:09;;;;;;;18.65;3.83;;;17.50;99.90;;;;;;5071495;28;20040;-63
2020/12/28 12:21:37;;;;;;;18.85;4.22;;;17.50;99.90;;;;;;5071463;28;20123;-63
2020/12/28 12:24:05;;;;;;;18.92;3.78;;;17.50;99.90;;;;;;5071582;28;20029;-63
2020/12/28 12:26:35;;;;;;;21.15;3.63;;;17.50;99.90;;;;;;5071226;28;20043;-63
2020/12/28 12:29:09;;;;;;;18.77;3.65;;;17.50;99.90;;;;;;5071330;28;20066;-63
2020/12/28 12:31:37;;;;;;;16.98;4.40;;;17.50;99.90;;;;;;5071351;28;20036;-63
2020/12/28 12:34:06;;;;;;;17.63;3.50;;;17.50;99.90;;;;;;5037784;28;20107;-63
2020/12/28 12:36:34;;;;;;;16.05;2.90;;;17.40;99.90;;;;;;5071219;28;20048;-63
2020/12/28 12:39:03;;;;;;;19.52;4.65;;;17.40;99.90;;;;;;5071200;28;20496;-63
2020/12/28 12:41:31;;;;;;;15.98;3.33;;;17.50;99.90;;;;;;5070278;28;20167;-63
2020/12/28 12:43:59;;;;;;;14.77;3.28;;;17.50;99.90;;;;;;5053254;28;20386;-63
2020/12/28 12:46:26;;;;;;;19.52;3.63;;;17.50;99.90;;;;;;5051886;28;20048;-63
2020/12/28 12:48:54;;;;;;;14.80;3.25;;;17.50;99.90;;;;;;5058700;28;20374;-63
2020/12/28 12:51:23;;;;;;;17.48;3.35;;;17.50;99.90;;;;;;5073281;28;20441;-63
2020/12/28 12:53:53;;;;;;;15.00;3.33;;;17.50;99.90;;;;;;5073391;28;20020;-63
2020/12/28 12:56:22;;;;;;;15.70;3.75;;;17.40;99.90;;;;;;5073175;28;20028;-63
2020/12/28 12:58:51;;;;;;;19.52;3.85;;;17.50;99.90;;;;;;5073517;28;20024;-63
2020/12/28 13:01:19;;;;;;;14.15;3.45;;;17.40;99.90;;;;;;5073282;28;20025;-63
2020/12/28 13:03:47;;;;;;;14.32;3.20;;;17.30;99.90;;;;;;5073181;28;20059;-64
2020/12/28 13:06:16;;;;;;;19.13;4.15;;;17.40;99.90;;;;;;5073009;28;20025;-63
2020/12/28 13:08:44;;;;;;;17.58;3.80;;;17.40;99.90;;;;;;5073023;28;20016;-63
2020/12/28 13:11:11;;;;;;;17.85;3.63;;;17.40;99.90;;;;;;5072990;28;20095;-63
2020/12/28 13:13:39;;;;;;;18.92;4.20;;;17.40;99.90;;;;;;5075346;28;20020;-63
2020/12/28 13:16:07;;;;;;;17.58;4.43;;;17.40;99.90;;;;;;5077109;28;20033;-63
2020/12/28 13:18:36;;;;;;;17.73;3.90;;;17.40;99.90;;;;;;5077030;28;20025;-63
2020/12/28 13:21:04;;;;;;;15.40;3.95;;;17.40;99.90;;;;;;5077017;28;20024;-63
2020/12/28 13:23:32;;;;;;;12.68;3.08;;;17.40;99.90;;;;;;5076913;28;20032;-63
2020/12/28 13:26:00;;;;;;;22.80;3.70;;;17.30;99.90;;;;;;5076849;28;20032;-63
2020/12/28 13:28:28;;;;;;;13.32;3.03;;;17.30;99.90;;;;;;5076854;28;20066;-63
2020/12/28 13:30:56;;;;;;;14.88;3.85;;;17.30;99.90;;;;;;5076904;28;20044;-63
2020/12/28 13:33:24;;;;;;;21.30;3.85;;;17.30;99.90;;;;;;5076723;28;20021;-63
2020/12/28 13:35:52;;;;;;;17.58;3.60;;;17.40;99.90;;;;;;5058452;28;20032;-63
2020/12/28 13:38:21;;;;;;;18.02;4.15;;;17.30;99.90;;;;;;5076645;28;20469;-63
2020/12/28 13:40:49;;;;;;;13.32;3.15;;;17.30;99.90;;;;;;5076478;28;20530;-63
2020/12/28 13:43:17;;;;;;;15.05;3.22;;;17.30;99.90;;;;;;5076546;28;20092;-63
2020/12/28 13:45:45;;;;;;;14.13;3.90;;;17.30;99.90;;;;;;5076770;28;20484;-63
2020/12/28 13:48:13;;;;;;;15.88;3.90;;;17.30;99.90;;;;;;5076484;28;20021;-63
2020/12/28 13:50:41;;;;;;;19.00;4.00;;;17.30;99.90;;;;;;5076407;28;20036;-63
2020/12/28 13:53:10;;;;;;;16.48;3.47;;;17.30;99.90;;;;;;5076627;28;20074;-63
2020/12/28 13:55:39;;;;;;;17.35;3.22;;;17.30;99.90;;;;;;5076326;28;20165;-63
2020/12/28 13:58:07;;;;;;;17.83;4.47;;;17.30;99.90;;;;;;5076268;28;20025;-63
2020/12/28 14:00:36;;;;;;;15.50;3.60;;;17.30;99.90;;;;;;5076267;28;20031;-63
2020/12/28 14:03:04;;;;;;;20.23;4.72;;;17.30;99.90;;;;;;5074874;28;20423;-63
2020/12/28 14:05:32;;;;;;;19.27;4.13;;;17.30;99.90;;;;;;5076399;28;20020;-63
2020/12/28 14:08:00;;;;;;;15.10;3.75;;;17.30;99.90;;;;;;5076044;28;20060;-63
2020/12/28 14:10:28;;;;;;;16.83;3.53;;;17.30;99.90;;;;;;5076493;28;20029;-63
2020/12/28 14:13:01;;;;;;;13.40;3.90;;;17.30;99.90;;;;;;5074305;28;20032;-63
2020/12/28 14:15:30;;;;;;;15.60;3.92;;;17.40;99.90;;;;;;5075950;28;20033;-63
2020/12/28 14:17:58;;;;;;;15.70;3.85;;;17.40;99.90;;;;;;5076150;28;20077;-63
2020/12/28 14:20:27;;;;;;;13.82;3.25;;;17.30;99.90;;;;;;5076160;28;20025;-63
2020/12/28 14:22:55;;;;;;;16.00;3.33;;;17.30;99.90;;;;;;5076017;28;20021;-63
2020/12/28 14:25:23;;;;;;;15.05;3.30;;;17.40;99.90;;;;;;5074633;28;20033;-63
2020/12/28 14:27:51;;;;;;;14.70;3.33;;;17.40;99.90;;;;;;5075643;28;20035;-63